createdAt,value
2022-10-18T00:00:54.474Z,4.07
2022-10-18T00:05:59.293Z,3.40
2022-10-18T00:11:04.425Z,3.10
2022-10-18T00:16:13.763Z,3.25
2022-10-18T00:21:20.957Z,3.35
2022-10-18T00:26:26.549Z,4.00
2022-10-18T00:31:33.691Z,4.50
2022-10-18T00:36:37.682Z,5.38
2022-10-18T00:41:41.726Z,6.43
2022-10-18T00:46:50.449Z,6.43
2022-10-18T00:52:02.879Z,4.50
2022-10-18T00:57:07.759Z,4.10
2022-10-18T01:02:15.164Z,3.60
2022-10-18T01:07:32.601Z,3.65
2022-10-18T01:12:45.966Z,3.40
2022-10-18T01:18:00.915Z,4.38
2022-10-18T01:23:09.842Z,3.30
2022-10-18T01:28:40.227Z,3.58
2022-10-18T01:33:51.224Z,3.25
2022-10-18T01:39:00.140Z,3.53
2022-10-18T01:44:08.538Z,3.33
2022-10-18T01:49:14.411Z,3.47
2022-10-18T01:54:23.600Z,3.70
2022-10-18T01:59:55.504Z,3.72
2022-10-18T02:05:12.686Z,7.85
2022-10-18T02:10:23.798Z,3.28
2022-10-18T02:15:32.413Z,3.28
2022-10-18T02:20:39.828Z,4.00
2022-10-18T02:25:43.872Z,3.28
2022-10-18T02:30:54.216Z,4.07
2022-10-18T02:36:06.100Z,3.80
2022-10-18T02:41:13.258Z,3.40
2022-10-18T02:46:19.020Z,3.05
2022-10-18T02:51:25.342Z,3.47
2022-10-18T02:56:30.341Z,3.22
2022-10-18T03:01:34.652Z,8.07
2022-10-18T03:06:40.187Z,6.43
2022-10-18T03:11:44.955Z,5.45
2022-10-18T03:16:50.211Z,10.77
2022-10-18T03:21:56.969Z,7.43
2022-10-18T03:27:00.957Z,4.88
2022-10-18T03:32:05.325Z,4.68
2022-10-18T03:37:11.274Z,9.10
2022-10-18T03:42:15.280Z,5.57
2022-10-18T03:47:19.581Z,6.55
2022-10-18T03:52:25.028Z,8.95
2022-10-18T03:57:31.684Z,9.63
2022-10-18T04:02:39.315Z,8.15
2022-10-18T04:07:45.975Z,6.93
2022-10-18T04:12:50.221Z,6.82
2022-10-18T04:17:54.813Z,6.03
2022-10-18T04:23:01.364Z,3.60
2022-10-18T04:28:06.219Z,3.22
2022-10-18T04:33:10.938Z,2.92
2022-10-18T04:38:19.111Z,2.42
2022-10-18T04:43:25.611Z,3.28
2022-10-18T04:48:29.805Z,3.60
2022-10-18T04:53:35.205Z,3.58
2022-10-18T04:58:40.316Z,3.70
2022-10-18T05:03:45.721Z,7.68
2022-10-18T05:08:51.477Z,14.65
2022-10-18T05:13:56.104Z,14.40
2022-10-18T05:19:00.701Z,6.43
2022-10-18T05:24:07.002Z,4.15
2022-10-18T05:29:11.948Z,3.90
2022-10-18T05:34:16.895Z,4.35
2022-10-18T05:39:22.451Z,8.88
2022-10-18T05:44:26.588Z,13.27
2022-10-18T05:49:30.876Z,11.60
2022-10-18T05:54:37.848Z,9.77
2022-10-18T05:59:43.165Z,6.10
2022-10-18T06:04:47.221Z,9.07
2022-10-18T06:09:52.623Z,7.85
2022-10-18T06:14:56.719Z,11.45
2022-10-18T06:20:02.075Z,8.55
2022-10-18T06:25:08.265Z,7.07
2022-10-18T09:50:50.076Z,2.00
2022-10-18T09:56:02.388Z,1.38
2022-10-18T10:01:07.336Z,1.88
2022-10-18T10:06:29.734Z,2.25
2022-10-18T10:11:40.512Z,1.75
2022-10-18T10:16:49.492Z,2.05
2022-10-18T10:21:59.794Z,1.60
2022-10-18T10:27:07.115Z,1.67
2022-10-18T10:32:19.753Z,1.88
2022-10-18T10:37:36.629Z,1.30
2022-10-18T10:43:32.891Z,1.92
2022-10-18T10:48:47.940Z,1.42
2022-10-18T10:54:01.171Z,1.83
2022-10-18T10:59:14.891Z,1.52
2022-10-18T11:04:28.561Z,1.80
2022-10-18T11:09:44.793Z,1.40
2022-10-18T11:14:56.252Z,1.60
2022-10-18T11:20:17.843Z,2.03
2022-10-18T11:25:26.789Z,1.52
2022-10-18T11:30:43.836Z,1.50
2022-10-18T11:35:53.795Z,1.83
2022-10-18T11:41:22.690Z,2.03
2022-10-18T11:46:42.563Z,1.63
2022-10-18T11:52:08.751Z,1.63
2022-10-18T11:57:40.811Z,1.63
2022-10-18T12:03:04.431Z,1.40
2022-10-18T12:08:14.993Z,1.23
2022-10-18T12:13:26.888Z,1.63
2022-10-18T12:18:33.314Z,1.27
2022-10-18T12:23:43.880Z,1.45
2022-10-18T12:28:58.762Z,1.30
2022-10-18T12:34:13.493Z,1.38
2022-10-18T12:39:32.282Z,1.23
2022-10-18T12:44:50.569Z,1.35
2022-10-18T12:50:00.248Z,1.40
2022-10-18T12:55:32.263Z,1.10
2022-10-18T13:01:05.510Z,1.70
2022-10-18T13:06:09.604Z,1.45
2022-10-18T13:11:36.063Z,1.05
2022-10-18T13:16:50.615Z,1.55
2022-10-18T13:22:12.182Z,1.42
2022-10-18T13:27:37.090Z,1.45
2022-10-18T13:32:51.148Z,1.88
2022-10-18T13:37:59.967Z,1.63
2022-10-18T13:43:37.313Z,1.40
2022-10-18T13:48:50.881Z,1.55
2022-10-18T13:54:02.727Z,1.77
2022-10-18T13:59:24.016Z,1.27
2022-10-18T14:05:23.863Z,1.70
2022-10-18T14:10:50.118Z,1.50
2022-10-18T14:16:08.461Z,1.38
2022-10-18T14:21:22.089Z,1.80
2022-10-18T14:26:29.527Z,1.85
2022-10-18T14:31:34.636Z,1.88
2022-10-18T14:36:42.715Z,2.25
2022-10-18T14:41:50.476Z,1.73
2022-10-18T14:47:00.873Z,1.90
2022-10-18T14:52:15.821Z,1.92
2022-10-18T14:57:24.986Z,2.80
2022-10-18T15:02:30.686Z,3.53
2022-10-18T15:07:37.387Z,2.35
2022-10-18T15:13:08.286Z,3.63
2022-10-18T15:18:09.589Z,5.35
2022-10-18T15:23:25.345Z,5.05
2022-10-18T15:28:32.329Z,2.72
2022-10-18T15:33:36.702Z,8.13
2022-10-18T15:38:46.228Z,8.85
2022-10-18T15:43:53.200Z,7.35
2022-10-18T15:49:21.979Z,7.18
2022-10-18T15:54:32.440Z,4.75
2022-10-18T15:59:37.532Z,4.30
2022-10-18T16:04:41.800Z,6.70
2022-10-18T16:09:47.125Z,15.00
2022-10-18T16:14:53.039Z,19.02
2022-10-18T16:19:57.064Z,21.83
2022-10-18T16:25:02.429Z,12.98
2022-10-18T16:30:14.548Z,5.25
2022-10-18T16:35:19.405Z,3.65
2022-10-18T16:40:27.134Z,3.47
2022-10-18T16:45:31.353Z,4.45
2022-10-18T16:50:35.561Z,6.38
2022-10-18T16:55:43.718Z,13.27
2022-10-18T17:00:48.260Z,9.88
2022-10-18T17:05:52.368Z,11.15
2022-10-18T17:11:00.095Z,11.10
2022-10-18T17:16:04.601Z,10.77
2022-10-18T17:21:11.007Z,12.45
2022-10-18T17:26:28.438Z,13.65
2022-10-18T17:31:35.742Z,6.88
2022-10-18T17:36:40.360Z,7.38
2022-10-18T17:41:45.729Z,8.25
2022-10-18T17:46:49.862Z,9.73
2022-10-18T17:51:54.336Z,13.32
2022-10-18T17:56:59.860Z,12.25
2022-10-18T18:02:05.406Z,10.45
2022-10-18T18:07:09.705Z,7.80
2022-10-18T18:12:16.129Z,10.38
2022-10-18T18:17:28.714Z,9.95
2022-10-18T18:22:41.848Z,11.32
2022-10-18T18:27:48.309Z,8.17
2022-10-18T18:32:52.411Z,7.50
2022-10-18T18:37:56.669Z,7.82
2022-10-18T18:43:12.409Z,11.23
2022-10-18T18:48:26.776Z,9.40
2022-10-18T18:53:31.763Z,8.88
2022-10-18T18:58:39.474Z,6.70
2022-10-18T19:03:44.549Z,7.55
2022-10-18T19:08:49.691Z,4.95
2022-10-18T19:13:55.728Z,5.65
2022-10-18T19:19:01.635Z,11.65
2022-10-18T19:24:07.445Z,10.88
2022-10-18T19:29:15.662Z,7.30
2022-10-18T19:34:22.999Z,6.30
2022-10-18T19:39:30.760Z,5.43
2022-10-18T19:44:38.188Z,4.72
2022-10-18T19:49:43.184Z,5.10
2022-10-18T19:54:49.776Z,5.43
2022-10-18T19:59:56.711Z,6.97
2022-10-18T20:05:02.385Z,7.80
2022-10-18T20:10:07.461Z,8.32
2022-10-18T20:15:13.533Z,5.82
2022-10-18T20:20:17.669Z,5.78
2022-10-18T20:25:22.209Z,5.30
2022-10-18T20:30:31.754Z,5.35
2022-10-18T20:40:42.087Z,4.38
2022-10-18T20:45:47.602Z,4.47
2022-10-18T20:50:53.223Z,4.72
2022-10-18T20:56:05.243Z,4.18
2022-10-18T21:01:13.361Z,5.38
2022-10-18T21:06:19.781Z,4.95
2022-10-18T21:11:25.434Z,4.90
2022-10-18T21:16:31.913Z,7.75
2022-10-18T21:21:36.012Z,6.55
2022-10-18T21:26:44.270Z,7.85
2022-10-18T21:31:53.659Z,4.80
2022-10-18T21:36:58.421Z,4.90
2022-10-18T21:42:03.728Z,3.97
2022-10-18T21:47:11.188Z,4.25
2022-10-18T21:52:15.517Z,4.00
2022-10-18T21:57:21.046Z,4.53
2022-10-18T22:02:26.939Z,5.07
2022-10-18T22:07:32.493Z,5.70
2022-10-18T22:12:37.516Z,6.35
2022-10-18T22:17:43.285Z,4.13
2022-10-18T22:22:47.581Z,4.47
2022-10-18T22:27:51.645Z,4.53
2022-10-18T22:32:57.255Z,4.45
2022-10-18T22:38:01.769Z,4.20
2022-10-18T22:43:05.865Z,4.85
2022-10-18T22:48:11.251Z,4.45
2022-10-18T22:53:15.401Z,4.05
2022-10-18T22:58:20.219Z,3.53
2022-10-18T23:03:25.654Z,4.00
2022-10-18T23:08:29.606Z,3.88
2022-10-18T23:13:37.365Z,3.95
2022-10-18T23:18:45.030Z,7.97
2022-10-18T23:23:49.062Z,4.97
2022-10-18T23:28:55.184Z,5.35
2022-10-18T23:34:02.805Z,4.63
2022-10-18T23:39:07.090Z,3.70
2022-10-18T23:44:11.522Z,3.75
2022-10-18T23:49:16.963Z,7.60
2022-10-18T23:54:21.118Z,9.90
2022-10-18T23:59:26.837Z,7.53
